createdAt,value
2022-07-28T00:01:20.503Z,99667.97
2022-07-28T00:03:49.160Z,99665.00
2022-07-28T00:06:17.456Z,99661.25
2022-07-28T00:08:45.310Z,99658.53
2022-07-28T00:11:13.236Z,99661.72
2022-07-28T00:13:41.212Z,99655.88
2022-07-28T00:18:38.482Z,99658.47
2022-07-28T00:21:06.365Z,99660.41
2022-07-28T00:23:39.507Z,99657.97
2022-07-28T00:26:08.848Z,99665.41
2022-07-28T00:28:37.072Z,99660.31
2022-07-28T00:31:08.570Z,99651.22
2022-07-28T00:36:10.468Z,99644.25
2022-07-28T00:38:40.915Z,99644.53
2022-07-28T00:41:12.176Z,99645.25
2022-07-28T00:43:41.000Z,99636.38
2022-07-28T00:46:09.886Z,99640.88
2022-07-28T00:48:40.456Z,99641.44
2022-07-28T00:51:10.068Z,99642.50
2022-07-28T00:53:38.068Z,99645.16
2022-07-28T00:58:36.013Z,99640.88
2022-07-28T01:01:04.250Z,99641.31
2022-07-28T01:03:33.574Z,99641.56
2022-07-28T01:06:11.192Z,99642.59
2022-07-28T01:08:54.582Z,99641.78
2022-07-28T01:14:08.887Z,99640.03
2022-07-28T01:16:46.165Z,99644.31
2022-07-28T01:19:31.477Z,99636.28
2022-07-28T01:22:03.887Z,99639.50
2022-07-28T01:24:41.061Z,99640.03
2022-07-28T01:27:11.880Z,99633.13
2022-07-28T01:30:02.313Z,99627.00
2022-07-28T01:32:36.521Z,99631.75
2022-07-28T01:35:11.288Z,99632.78
2022-07-28T01:37:44.368Z,99633.34
2022-07-28T01:40:16.416Z,99628.88
2022-07-28T01:42:47.954Z,99625.75
2022-07-28T01:45:17.367Z,99627.34
2022-07-28T01:47:48.135Z,99613.16
2022-07-28T01:50:18.134Z,99617.19
2022-07-28T01:55:21.278Z,99618.25
2022-07-28T01:57:50.502Z,99609.44
2022-07-28T02:00:19.337Z,99619.75
2022-07-28T02:02:51.539Z,99620.78
2022-07-28T02:05:22.662Z,99616.31
2022-07-28T02:07:52.514Z,99613.38
2022-07-28T02:10:22.549Z,99610.81
2022-07-28T02:15:23.194Z,99603.38
2022-07-28T02:17:53.913Z,99609.44
2022-07-28T02:20:23.471Z,99603.38
2022-07-28T02:22:53.119Z,99603.06
2022-07-28T02:25:22.383Z,99603.00
2022-07-28T02:27:53.608Z,99599.06
2022-07-28T02:30:29.597Z,99595.31
2022-07-28T02:33:04.928Z,99603.56
2022-07-28T02:35:41.050Z,99593.94
2022-07-28T02:38:15.530Z,99592.44
2022-07-28T02:40:46.017Z,99587.88
2022-07-28T02:43:16.481Z,99589.50
2022-07-28T02:45:48.387Z,99586.53
2022-07-28T02:48:22.930Z,99592.69
2022-07-28T02:50:52.676Z,99586.75
2022-07-28T02:55:52.627Z,99595.63
2022-07-28T02:58:23.759Z,99591.63
2022-07-28T03:00:53.379Z,99588.47
2022-07-28T03:03:24.165Z,99589.28
2022-07-28T03:08:20.740Z,99594.84
2022-07-28T03:10:48.650Z,99600.97
2022-07-28T03:13:16.558Z,99597.03
2022-07-28T03:15:44.923Z,99601.47
2022-07-28T03:18:12.773Z,99595.63
2022-07-28T03:20:41.990Z,99602.22
2022-07-28T03:23:10.741Z,99608.56
2022-07-28T03:25:44.296Z,99607.28
2022-07-28T03:28:19.482Z,99612.28
2022-07-28T03:30:53.316Z,99610.66
2022-07-28T03:33:21.489Z,99597.13
2022-07-28T03:35:54.150Z,99607.31
2022-07-28T03:38:25.546Z,99603.19
2022-07-28T03:40:55.268Z,99599.06
2022-07-28T03:43:25.952Z,99592.66
2022-07-28T03:45:54.260Z,99602.00
2022-07-28T03:48:24.489Z,99600.91
2022-07-28T03:50:53.737Z,99599.53
2022-07-28T03:53:23.902Z,99598.50
2022-07-28T03:55:51.847Z,99603.28
2022-07-28T03:58:20.243Z,99597.63
2022-07-28T04:00:49.494Z,99606.44
2022-07-28T04:03:35.034Z,99605.25
2022-07-28T04:06:07.390Z,99603.63
2022-07-28T04:08:35.455Z,99598.91
2022-07-28T04:11:03.313Z,99601.84
2022-07-28T04:13:32.272Z,99601.56
2022-07-28T04:16:00.620Z,99609.88
2022-07-28T04:18:28.491Z,99606.59
2022-07-28T04:20:56.753Z,99591.22
2022-07-28T04:23:25.996Z,99587.34
2022-07-28T04:25:53.872Z,99585.72
2022-07-28T04:28:21.730Z,99594.81
2022-07-28T04:30:49.610Z,99593.28
2022-07-28T04:33:19.434Z,99587.97
2022-07-28T04:35:48.015Z,99589.41
2022-07-28T04:38:18.207Z,99591.22
2022-07-28T04:40:48.410Z,99599.50
2022-07-28T04:43:16.402Z,99589.75
2022-07-28T04:45:53.483Z,99594.22
2022-07-28T04:48:23.283Z,99599.34
2022-07-28T04:50:52.875Z,99599.94
2022-07-28T04:53:21.403Z,99607.31
2022-07-28T04:55:54.551Z,99602.66
2022-07-28T04:58:23.322Z,99597.38
2022-07-28T05:00:52.025Z,99585.78
2022-07-28T05:03:20.101Z,99589.53
2022-07-28T05:05:54.175Z,99597.03
2022-07-28T05:08:25.529Z,99600.94
2022-07-28T05:10:57.179Z,99589.53
2022-07-28T05:15:57.145Z,99581.28
2022-07-28T05:18:25.103Z,99585.06
2022-07-28T05:20:52.937Z,99586.16
2022-07-28T05:23:20.806Z,99584.81
2022-07-28T05:25:48.853Z,99583.75
2022-07-28T05:28:18.215Z,99584.69
2022-07-28T05:30:46.268Z,99590.00
2022-07-28T05:33:16.600Z,99588.13
2022-07-28T05:35:44.855Z,99594.31
2022-07-28T05:38:13.102Z,99592.00
2022-07-28T05:40:41.046Z,99592.78
2022-07-28T05:43:08.998Z,99587.75
2022-07-28T05:45:38.235Z,99591.81
2022-07-28T05:48:06.409Z,99594.53
2022-07-28T05:50:34.340Z,99591.38
2022-07-28T05:53:02.197Z,99595.66
2022-07-28T05:55:30.172Z,99593.84
2022-07-28T05:58:00.212Z,99597.00
2022-07-28T06:00:28.609Z,99602.09
2022-07-28T06:03:01.997Z,99604.28
2022-07-28T06:05:31.945Z,99608.03
2022-07-28T06:08:01.000Z,99605.66
2022-07-28T06:10:50.672Z,99607.19
2022-07-28T06:13:19.947Z,99602.72
2022-07-28T06:15:48.325Z,99604.38
2022-07-28T06:18:17.537Z,99606.00
2022-07-28T06:20:45.491Z,99601.47
2022-07-28T06:23:13.424Z,99597.47
2022-07-28T06:25:41.455Z,99607.56
2022-07-28T06:28:09.351Z,99605.72
2022-07-28T06:30:37.185Z,99595.31
2022-07-28T06:33:07.477Z,99595.03
2022-07-28T06:35:45.017Z,99598.50
2022-07-28T06:38:20.348Z,99603.00
2022-07-28T06:40:48.401Z,99599.03
2022-07-28T06:43:16.299Z,99607.25
2022-07-28T06:45:45.063Z,99611.69
2022-07-28T06:48:13.854Z,99597.84
2022-07-28T06:50:43.886Z,99601.78
2022-07-28T06:53:11.852Z,99610.50
2022-07-28T06:55:41.290Z,99616.91
2022-07-28T06:58:09.694Z,99608.03
2022-07-28T07:00:37.619Z,99604.31
2022-07-28T07:03:09.648Z,99609.41
2022-07-28T07:05:38.078Z,99606.81
2022-07-28T07:08:07.550Z,99603.00
2022-07-28T07:10:36.217Z,99608.38
2022-07-28T07:13:04.082Z,99601.34
2022-07-28T07:15:31.968Z,99601.41
2022-07-28T07:18:02.894Z,99601.53
2022-07-28T07:20:30.763Z,99599.19
2022-07-28T07:22:58.657Z,99600.63
2022-07-28T07:25:28.002Z,99605.06
2022-07-28T07:27:55.990Z,99594.84
2022-07-28T07:30:23.903Z,99589.09
2022-07-28T07:32:51.822Z,99590.50
2022-07-28T07:37:48.177Z,99585.97
2022-07-28T07:40:16.097Z,99579.94
2022-07-28T07:42:45.362Z,99585.31
2022-07-28T07:45:13.295Z,99579.44
2022-07-28T07:47:41.149Z,99576.75
2022-07-28T07:50:09.682Z,99571.84
2022-07-28T07:52:37.513Z,99572.91
2022-07-28T07:55:06.120Z,99571.19
2022-07-28T07:57:33.981Z,99568.09
2022-07-28T08:00:03.645Z,99567.66
2022-07-28T08:02:31.557Z,99567.41
2022-07-28T08:05:00.655Z,99566.16
2022-07-28T08:07:28.610Z,99563.66
2022-07-28T08:09:56.666Z,99570.94
2022-07-28T08:12:25.334Z,99560.94
2022-07-28T08:14:53.640Z,99572.28
2022-07-28T08:17:25.881Z,99566.50
2022-07-28T08:19:54.411Z,99571.81
2022-07-28T08:22:22.508Z,99570.63
2022-07-28T08:24:50.507Z,99559.84
2022-07-28T08:27:18.586Z,99570.09
2022-07-28T08:29:46.973Z,99553.53
2022-07-28T08:32:14.879Z,99570.13
2022-07-28T08:34:44.309Z,99555.31
2022-07-28T08:37:12.158Z,99559.56
2022-07-28T08:39:39.992Z,99556.16
2022-07-28T08:42:10.339Z,99559.13
2022-07-28T08:44:52.566Z,99561.31
2022-07-28T08:47:21.661Z,99557.75
2022-07-28T08:49:52.970Z,99554.94
2022-07-28T08:54:51.073Z,99557.41
2022-07-28T08:57:23.544Z,99556.56
2022-07-28T08:59:53.465Z,99548.72
2022-07-28T09:04:52.062Z,99548.91
2022-07-28T09:07:20.370Z,99547.56
2022-07-28T09:09:49.696Z,99548.81
2022-07-28T09:12:17.988Z,99544.16
2022-07-28T09:14:47.164Z,99546.34
2022-07-28T09:17:15.143Z,99538.88
2022-07-28T09:19:43.122Z,99540.34
2022-07-28T09:22:13.342Z,99538.44
2022-07-28T09:24:42.466Z,99538.34
2022-07-28T09:27:11.984Z,99534.13
2022-07-28T09:29:42.089Z,99532.16
2022-07-28T09:32:10.175Z,99528.22
2022-07-28T09:34:42.490Z,99533.66
2022-07-28T09:37:24.768Z,99521.03
2022-07-28T09:39:59.204Z,99535.94
2022-07-28T09:42:27.828Z,99532.91
2022-07-28T09:45:22.359Z,99527.41
2022-07-28T09:50:22.933Z,99534.56
2022-07-28T09:52:52.159Z,99538.03
2022-07-28T09:55:19.983Z,99528.91
2022-07-28T09:57:47.834Z,99524.94
2022-07-28T10:05:40.325Z,99521.84
2022-07-28T10:08:09.554Z,99521.31
2022-07-28T10:10:37.651Z,99514.50
2022-07-28T10:13:07.169Z,99504.22
2022-07-28T10:20:50.793Z,99509.47
2022-07-28T10:23:21.495Z,99493.53
2022-07-28T10:25:49.515Z,99489.94
2022-07-28T10:28:21.762Z,99484.22
2022-07-28T10:30:56.383Z,99491.50
2022-07-28T10:33:25.731Z,99475.38
2022-07-28T10:35:55.250Z,99459.53
2022-07-28T10:38:29.739Z,99462.91
2022-07-28T10:41:02.811Z,99467.91
2022-07-28T10:46:09.689Z,99462.38
2022-07-28T10:56:19.133Z,99450.25
2022-07-28T11:07:23.877Z,99455.56
2022-07-28T11:09:54.108Z,99452.13
2022-07-28T11:18:10.492Z,99451.81
2022-07-28T11:29:21.854Z,99431.16
2022-07-28T11:50:14.196Z,99414.84
2022-07-28T11:52:54.290Z,99422.56
2022-07-28T11:58:25.602Z,99413.59
2022-07-28T12:01:13.659Z,99410.28
2022-07-28T12:11:27.179Z,99410.91
2022-07-28T12:14:01.177Z,99412.69
2022-07-28T12:18:58.148Z,99415.75
2022-07-28T12:31:51.443Z,99389.81
2022-07-28T12:34:20.372Z,99386.28
2022-07-28T12:36:49.333Z,99396.34
2022-07-28T12:51:51.549Z,99365.44
2022-07-28T12:54:19.440Z,99378.84
2022-07-28T12:59:19.894Z,99372.28
2022-07-28T13:01:50.103Z,99371.53
2022-07-28T13:06:57.271Z,99373.34
2022-07-28T13:24:37.400Z,99369.19
2022-07-28T13:32:06.160Z,99360.00
2022-07-28T13:39:30.010Z,99355.41
2022-07-28T14:04:21.258Z,99326.06
2022-07-28T14:16:52.942Z,99318.47
2022-07-28T14:24:22.040Z,99311.81
2022-07-28T14:29:17.915Z,99313.28
2022-07-28T14:31:45.835Z,99308.56
2022-07-28T14:34:13.881Z,99305.13
2022-07-28T14:36:41.946Z,99314.72
2022-07-28T14:51:44.825Z,99307.56
2022-07-28T14:59:10.365Z,99302.81
2022-07-28T15:01:38.357Z,99301.44
2022-07-28T15:04:06.568Z,99298.75
2022-07-28T15:06:34.518Z,99299.44
2022-07-28T15:11:31.781Z,99301.50
2022-07-28T15:21:24.595Z,99302.81
2022-07-28T15:23:52.432Z,99296.97
2022-07-28T15:28:49.614Z,99294.31
2022-07-28T15:38:47.361Z,99296.50
2022-07-28T16:08:30.610Z,99270.38
2022-07-28T16:13:36.840Z,99269.31
2022-07-28T16:26:02.476Z,99254.34
2022-07-28T16:33:26.546Z,99249.16
2022-07-28T16:40:52.205Z,99249.31
2022-07-28T16:43:20.081Z,99243.66
2022-07-28T16:50:46.214Z,99243.88
2022-07-28T16:53:16.507Z,99243.47
2022-07-28T16:58:13.449Z,99245.78
2022-07-28T17:00:41.352Z,99245.13
2022-07-28T17:03:11.069Z,99242.72
2022-07-28T17:05:39.292Z,99243.16
2022-07-28T17:08:08.912Z,99236.53
2022-07-28T17:10:38.181Z,99232.38
2022-07-28T17:13:06.047Z,99232.22
2022-07-28T17:15:34.189Z,99236.19
2022-07-28T17:18:02.186Z,99232.63
2022-07-28T17:22:58.557Z,99221.50
2022-07-28T17:30:43.954Z,99220.25
2022-07-28T17:33:12.066Z,99230.72
2022-07-28T17:35:40.534Z,99227.56
2022-07-28T17:38:09.559Z,99222.59
2022-07-28T17:40:40.118Z,99217.44
2022-07-28T17:43:08.848Z,99212.38
2022-07-28T17:45:38.145Z,99214.50
2022-07-28T17:48:06.526Z,99228.47
2022-07-28T17:50:34.681Z,99224.63
2022-07-28T17:53:02.808Z,99220.88
2022-07-28T17:55:59.911Z,99219.09
2022-07-28T17:58:29.187Z,99237.66
2022-07-28T18:01:10.903Z,99240.38
2022-07-28T18:03:58.757Z,99239.34
2022-07-28T18:09:05.244Z,99238.56
2022-07-28T18:11:36.034Z,99242.44
2022-07-28T18:14:23.976Z,99242.34
2022-07-28T18:16:53.562Z,99244.53
2022-07-28T18:19:21.775Z,99249.78
2022-07-28T18:24:21.771Z,99252.19
2022-07-28T18:26:49.967Z,99253.97
2022-07-28T18:31:46.959Z,99251.09
2022-07-28T18:36:45.805Z,99259.56
2022-07-28T18:39:13.697Z,99256.94
2022-07-28T18:41:46.354Z,99249.69
2022-07-28T18:44:16.121Z,99255.56
2022-07-28T18:46:44.537Z,99260.97
2022-07-28T18:49:12.609Z,99259.13
2022-07-28T18:51:45.033Z,99256.78
2022-07-28T18:54:14.991Z,99259.81
2022-07-28T18:56:44.268Z,99255.91
2022-07-28T19:01:40.212Z,99252.97
2022-07-28T19:04:08.432Z,99256.16
2022-07-28T19:06:36.939Z,99255.72
2022-07-28T19:09:06.349Z,99256.81
2022-07-28T19:14:02.409Z,99254.81
2022-07-28T19:16:30.262Z,99259.44
2022-07-28T19:18:58.508Z,99264.22
2022-07-28T19:21:26.376Z,99267.25
2022-07-28T19:23:54.233Z,99266.63
2022-07-28T19:26:23.891Z,99265.50
2022-07-28T19:28:51.863Z,99267.25
2022-07-28T19:31:19.705Z,99264.53
2022-07-28T19:33:47.617Z,99271.66
2022-07-28T19:36:15.613Z,99271.03
2022-07-28T19:41:12.995Z,99276.56
2022-07-28T19:43:42.265Z,99275.94
2022-07-28T19:46:10.245Z,99270.06
2022-07-28T19:48:38.523Z,99278.63
2022-07-28T19:51:06.750Z,99277.66
2022-07-28T19:53:36.332Z,99272.91
2022-07-28T19:56:08.876Z,99289.63
2022-07-28T19:58:37.295Z,99291.06
2022-07-28T20:01:07.361Z,99300.94
2022-07-28T20:04:01.719Z,99308.38
2022-07-28T20:06:25.102Z,99298.88
2022-07-28T20:08:54.075Z,99297.13
2022-07-28T20:11:22.144Z,99296.50
2022-07-28T20:13:50.827Z,99286.38
2022-07-28T20:16:20.518Z,99295.19
2022-07-28T20:18:48.465Z,99295.91
2022-07-28T20:21:16.933Z,99293.53
2022-07-28T20:23:44.794Z,99297.00
2022-07-28T20:26:14.503Z,99287.31
2022-07-28T20:28:43.746Z,99293.31
2022-07-28T20:31:16.483Z,99308.75
2022-07-28T20:33:47.018Z,99311.44
2022-07-28T20:36:15.016Z,99317.53
2022-07-28T20:38:42.872Z,99319.53
2022-07-28T20:41:10.797Z,99319.78
2022-07-28T20:43:39.095Z,99320.19
2022-07-28T20:46:07.006Z,99329.78
2022-07-28T20:48:35.784Z,99327.56
2022-07-28T20:51:05.238Z,99327.81
2022-07-28T20:53:33.091Z,99331.56
2022-07-28T20:56:01.207Z,99337.19
2022-07-28T20:58:29.104Z,99325.75
2022-07-28T21:00:58.978Z,99326.06
2022-07-28T21:03:27.474Z,99335.53
2022-07-28T21:05:56.037Z,99335.34
2022-07-28T21:08:26.151Z,99347.16
2022-07-28T21:13:24.440Z,99353.94
2022-07-28T21:15:53.381Z,99354.09
2022-07-28T21:18:21.935Z,99357.47
2022-07-28T21:23:19.187Z,99372.09
2022-07-28T21:25:51.590Z,99376.34
2022-07-28T21:28:37.619Z,99371.03
2022-07-28T21:31:06.477Z,99375.78
2022-07-28T21:33:34.617Z,99378.78
2022-07-28T21:36:03.383Z,99380.38
2022-07-28T21:38:32.227Z,99381.94
2022-07-28T21:43:30.003Z,99388.81
2022-07-28T21:45:58.240Z,99388.03
2022-07-28T21:50:54.331Z,99390.09
2022-07-28T21:53:22.585Z,99380.16
2022-07-28T21:55:50.790Z,99384.75
2022-07-28T21:58:20.119Z,99388.69
2022-07-28T22:00:48.057Z,99382.06
2022-07-28T22:03:15.996Z,99387.72
2022-07-28T22:05:44.026Z,99402.28
2022-07-28T22:08:11.856Z,99403.97
2022-07-28T22:10:39.716Z,99416.28
2022-07-28T22:13:07.636Z,99413.50
2022-07-28T22:15:37.081Z,99407.25
2022-07-28T22:18:05.102Z,99416.88
2022-07-28T22:20:32.982Z,99417.69
2022-07-28T22:23:00.811Z,99422.03
2022-07-28T22:25:28.648Z,99421.44
2022-07-28T22:27:56.495Z,99418.84
2022-07-28T22:30:24.422Z,99417.56
2022-07-28T22:32:53.760Z,99415.19
2022-07-28T22:37:49.521Z,99422.31
2022-07-28T22:40:17.875Z,99422.31
2022-07-28T22:42:46.232Z,99420.44
2022-07-28T22:45:14.147Z,99424.41
2022-07-28T22:47:42.504Z,99427.78
2022-07-28T22:50:11.998Z,99426.78
2022-07-28T22:52:40.053Z,99423.41
2022-07-28T22:55:08.970Z,99421.81
2022-07-28T22:57:36.799Z,99422.59
2022-07-28T23:00:06.294Z,99415.25
2022-07-28T23:02:35.616Z,99412.78
2022-07-28T23:05:05.410Z,99410.69
2022-07-28T23:07:53.292Z,99417.13
2022-07-28T23:10:22.525Z,99409.00
2022-07-28T23:12:50.378Z,99405.34
2022-07-28T23:15:18.338Z,99410.75
2022-07-28T23:17:46.202Z,99407.31
2022-07-28T23:22:43.416Z,99398.63
2022-07-28T23:37:41.569Z,99381.13
2022-07-28T23:50:20.228Z,99377.03
2022-07-28T23:52:48.736Z,99383.97
2022-07-28T23:55:21.263Z,99375.44
2022-07-28T23:57:52.338Z,99378.59
